createdAt,value
2023-03-19T00:01:46.895Z,9.25
2023-03-19T00:06:04.999Z,9.23
2023-03-19T00:10:24.065Z,8.60
2023-03-19T00:14:44.215Z,7.47
2023-03-19T00:19:02.448Z,10.52
2023-03-19T00:23:19.855Z,8.93
2023-03-19T00:27:39.945Z,9.70
2023-03-19T00:31:59.995Z,8.60
2023-03-19T00:36:21.763Z,8.82
2023-03-19T00:40:41.251Z,7.60
2023-03-19T00:45:00.992Z,9.30
2023-03-19T00:49:20.918Z,9.52
2023-03-19T00:53:39.958Z,7.30
2023-03-19T00:57:59.365Z,10.65
2023-03-19T01:02:18.926Z,10.77
2023-03-19T01:06:38.482Z,10.73
2023-03-19T01:10:56.667Z,12.32
2023-03-19T01:15:17.019Z,11.13
2023-03-19T01:19:37.729Z,11.95
2023-03-19T01:23:57.172Z,12.43
2023-03-19T01:28:18.106Z,12.38
2023-03-19T01:32:36.291Z,11.07
2023-03-19T01:37:14.546Z,8.07
2023-03-19T01:41:33.835Z,8.50
2023-03-19T01:46:20.893Z,8.30
2023-03-19T01:51:01.131Z,7.17
2023-03-19T01:55:37.270Z,7.85
2023-03-19T02:00:18.806Z,9.20
2023-03-19T02:04:37.893Z,6.07
2023-03-19T02:08:58.782Z,7.80
2023-03-19T02:13:20.651Z,8.05
2023-03-19T02:17:40.541Z,9.73
2023-03-19T02:21:58.513Z,11.33
2023-03-19T02:26:19.104Z,8.77
2023-03-19T02:30:41.317Z,8.55
2023-03-19T02:35:02.558Z,6.40
2023-03-19T02:39:26.301Z,5.45
2023-03-19T02:43:46.625Z,6.97
2023-03-19T02:48:06.870Z,5.88
2023-03-19T02:52:24.096Z,8.10
2023-03-19T02:56:42.566Z,10.63
2023-03-19T03:01:01.822Z,9.13
2023-03-19T03:05:21.534Z,10.30
2023-03-19T03:09:39.796Z,10.90
2023-03-19T03:13:57.745Z,9.32
2023-03-19T03:18:17.452Z,8.23
2023-03-19T03:22:36.808Z,7.60
2023-03-19T03:26:54.785Z,7.80
2023-03-19T03:31:13.714Z,6.75
2023-03-19T03:35:49.867Z,8.63
2023-03-19T03:40:14.343Z,9.68
2023-03-19T03:44:34.734Z,9.40
2023-03-19T03:48:55.659Z,7.40
2023-03-19T03:53:19.089Z,8.68
2023-03-19T03:57:39.777Z,7.97
2023-03-19T04:01:59.537Z,7.17
2023-03-19T04:06:22.038Z,7.22
2023-03-19T04:10:53.339Z,8.85
2023-03-19T04:15:15.558Z,6.25
2023-03-19T04:19:39.538Z,7.73
2023-03-19T04:23:57.561Z,9.07
2023-03-19T04:28:21.390Z,9.30
2023-03-19T04:32:44.479Z,8.23
2023-03-19T04:37:03.568Z,9.00
2023-03-19T04:41:27.783Z,7.75
2023-03-19T04:46:14.515Z,9.53
2023-03-19T04:50:35.148Z,9.98
2023-03-19T04:54:57.011Z,9.55
2023-03-19T04:59:18.366Z,9.18
2023-03-19T05:03:42.341Z,9.73
2023-03-19T05:08:02.217Z,9.70
2023-03-19T05:12:23.343Z,10.40
2023-03-19T05:16:44.992Z,10.43
2023-03-19T05:21:07.483Z,10.00
2023-03-19T05:25:27.124Z,10.35
2023-03-19T05:29:56.621Z,8.07
2023-03-19T05:34:33.673Z,8.35
2023-03-19T05:38:52.994Z,7.53
2023-03-19T05:43:20.091Z,9.68
2023-03-19T05:47:40.430Z,8.80
2023-03-19T05:52:03.702Z,6.25
2023-03-19T05:56:24.492Z,9.27
2023-03-19T06:00:58.383Z,10.30
2023-03-19T06:05:17.990Z,9.70
2023-03-19T06:09:41.190Z,9.80
2023-03-19T06:14:02.019Z,9.80
2023-03-19T06:18:29.560Z,9.50
2023-03-19T06:22:50.164Z,9.15
2023-03-19T06:27:09.734Z,8.60
2023-03-19T06:31:39.502Z,8.60
2023-03-19T06:36:09.833Z,9.25
2023-03-19T06:40:28.969Z,9.13
2023-03-19T06:44:48.572Z,9.13
2023-03-19T06:49:09.675Z,9.95
2023-03-19T06:53:27.626Z,10.25
2023-03-19T06:57:48.911Z,8.80
2023-03-19T07:02:08.962Z,9.57
2023-03-19T07:06:30.231Z,9.15
2023-03-19T07:10:51.031Z,8.95
2023-03-19T07:15:11.010Z,9.10
2023-03-19T07:19:28.688Z,9.20
2023-03-19T07:23:48.295Z,8.95
2023-03-19T07:28:07.563Z,8.23
2023-03-19T07:32:26.542Z,8.77
2023-03-19T07:36:46.126Z,8.95
2023-03-19T07:41:07.001Z,8.97
2023-03-19T07:45:26.370Z,8.65
2023-03-19T07:49:44.024Z,8.68
2023-03-19T07:54:01.896Z,8.50
2023-03-19T07:58:21.601Z,8.20
2023-03-19T08:02:42.838Z,8.90
2023-03-19T08:07:02.219Z,8.77
2023-03-19T08:11:20.335Z,8.70
2023-03-19T08:15:40.032Z,9.10
2023-03-19T08:19:59.766Z,8.40
2023-03-19T08:24:17.766Z,8.10
2023-03-19T08:28:35.698Z,8.32
2023-03-19T08:32:55.018Z,8.05
2023-03-19T08:37:14.936Z,7.30
2023-03-19T08:41:32.953Z,7.97
2023-03-19T08:45:52.476Z,7.68
2023-03-19T08:50:13.813Z,7.20
2023-03-19T08:54:33.766Z,7.37
2023-03-19T08:58:51.423Z,7.00
2023-03-19T09:03:09.412Z,6.82
2023-03-19T09:07:29.110Z,6.70
2023-03-19T09:11:49.308Z,7.60
2023-03-19T09:16:07.145Z,7.38
2023-03-19T09:20:24.816Z,7.43
2023-03-19T09:24:44.213Z,6.80
2023-03-19T09:29:04.987Z,7.15
2023-03-19T09:33:24.892Z,7.60
2023-03-19T09:37:43.281Z,6.90
2023-03-19T09:42:16.333Z,7.53
2023-03-19T09:46:43.460Z,7.60
2023-03-19T09:51:06.763Z,7.10
2023-03-19T09:55:37.660Z,7.30
2023-03-19T09:59:58.029Z,6.90
2023-03-19T10:04:41.654Z,7.80
2023-03-19T10:09:22.944Z,7.17
2023-03-19T10:13:55.590Z,8.52
2023-03-19T10:18:19.821Z,7.38
2023-03-19T10:22:40.188Z,7.47
2023-03-19T10:27:03.016Z,7.18
2023-03-19T10:31:31.064Z,7.65
2023-03-19T10:35:58.493Z,7.27
2023-03-19T10:40:23.334Z,7.03
2023-03-19T10:44:48.472Z,8.52
2023-03-19T10:49:05.587Z,6.60
2023-03-19T10:53:33.153Z,6.80
2023-03-19T10:57:52.863Z,6.68
2023-03-19T11:02:19.364Z,6.43
2023-03-19T11:06:40.250Z,5.93
2023-03-19T11:10:58.593Z,5.72
2023-03-19T11:15:22.090Z,5.25
2023-03-19T11:19:42.416Z,4.83
2023-03-19T11:24:03.078Z,5.13
2023-03-19T11:28:26.859Z,4.80
2023-03-19T11:33:09.713Z,5.15
2023-03-19T11:37:34.886Z,4.87
2023-03-19T11:42:21.171Z,5.35
2023-03-19T11:46:46.401Z,5.30
2023-03-19T11:51:12.383Z,5.00
2023-03-19T11:55:36.448Z,5.00
2023-03-19T12:00:13.724Z,5.25
2023-03-19T12:04:50.864Z,4.80
2023-03-19T12:09:17.722Z,4.47
2023-03-19T12:13:53.264Z,4.25
2023-03-19T12:18:23.784Z,4.50
2023-03-19T12:22:56.510Z,4.00
2023-03-19T12:27:27.492Z,4.40
2023-03-19T12:31:59.723Z,4.93
2023-03-19T12:36:25.080Z,4.60
2023-03-19T12:40:50.395Z,4.57
2023-03-19T12:45:25.315Z,3.70
2023-03-19T12:49:48.692Z,3.53
2023-03-19T12:54:14.088Z,3.47
2023-03-19T12:58:40.314Z,2.80
2023-03-19T13:03:06.596Z,3.15
2023-03-19T13:07:34.244Z,2.90
2023-03-19T13:12:00.004Z,3.05
2023-03-19T13:16:34.526Z,2.30
2023-03-19T13:21:11.657Z,26.87
2023-03-19T13:25:35.526Z,30.27
2023-03-19T13:30:04.067Z,98.45
2023-03-19T13:34:35.366Z,42.17
2023-03-19T13:38:53.183Z,3.00
2023-03-19T13:43:43.052Z,2.38
2023-03-19T13:48:25.694Z,2.60
2023-03-19T13:52:51.442Z,2.40
2023-03-19T13:57:22.644Z,3.20
2023-03-19T14:01:44.576Z,3.42
2023-03-19T14:06:04.261Z,3.20
2023-03-19T14:10:27.185Z,3.05
2023-03-19T14:14:50.971Z,2.90
2023-03-19T14:19:13.436Z,3.00
2023-03-19T14:23:41.196Z,3.53
2023-03-19T14:28:11.392Z,3.08
2023-03-19T14:32:35.570Z,3.00
2023-03-19T14:36:59.986Z,13.63
2023-03-19T14:41:20.771Z,84.35
2023-03-19T14:45:51.084Z,2.97
2023-03-19T14:50:41.941Z,3.10
2023-03-19T14:55:02.844Z,3.25
2023-03-19T14:59:21.872Z,3.30
2023-03-19T15:03:41.949Z,2.77
2023-03-19T15:08:04.763Z,74.95
2023-03-19T15:12:43.878Z,203.48
2023-03-19T15:17:07.754Z,282.98
2023-03-19T15:21:27.856Z,264.93
2023-03-19T15:25:48.268Z,545.60
2023-03-19T15:30:22.513Z,225.85
2023-03-19T15:34:42.627Z,210.20
2023-03-19T15:39:04.202Z,3.15
2023-03-19T15:43:24.851Z,3.13
2023-03-19T15:47:48.020Z,14.77
2023-03-19T15:52:09.613Z,50.97
2023-03-19T15:56:30.013Z,303.42
2023-03-19T16:00:48.603Z,230.30
2023-03-19T16:05:21.473Z,387.60
2023-03-19T16:09:39.781Z,641.47
2023-03-19T16:14:00.922Z,851.03
2023-03-19T16:18:26.487Z,508.27
2023-03-19T16:22:58.702Z,3.50
2023-03-19T16:27:19.200Z,3.45
2023-03-19T16:31:46.403Z,3.40
2023-03-19T16:36:05.656Z,3.40
2023-03-19T16:40:43.221Z,3.65
2023-03-19T16:45:18.141Z,3.95
2023-03-19T16:49:37.548Z,3.20
2023-03-19T16:53:57.229Z,3.60
2023-03-19T16:58:17.881Z,3.38
2023-03-19T17:02:36.259Z,3.47
2023-03-19T17:06:55.802Z,4.13
2023-03-19T17:11:25.082Z,3.72
2023-03-19T17:15:43.564Z,3.70
2023-03-19T17:20:00.956Z,3.38
2023-03-19T17:24:25.939Z,15.20
2023-03-19T17:28:43.123Z,18.75
2023-03-19T17:33:01.319Z,3.40
2023-03-19T17:37:19.226Z,7.50
2023-03-19T17:41:38.724Z,9.93
2023-03-19T17:45:58.419Z,11.40
2023-03-19T17:50:20.032Z,43.58
2023-03-19T17:54:37.656Z,53.55
2023-03-19T17:58:57.138Z,121.10
2023-03-19T18:03:19.337Z,82.93
2023-03-19T18:07:37.906Z,151.23
2023-03-19T18:11:56.938Z,54.65
2023-03-19T18:16:22.777Z,3.40
2023-03-19T18:20:42.592Z,3.50
2023-03-19T18:25:02.818Z,3.60
2023-03-19T18:29:20.679Z,82.37
2023-03-19T18:33:40.676Z,173.13
2023-03-19T18:38:00.642Z,159.25
2023-03-19T18:42:18.373Z,92.67
2023-03-19T18:46:38.408Z,110.18
2023-03-19T18:50:58.776Z,71.63
2023-03-19T18:55:18.798Z,85.93
2023-03-19T18:59:36.397Z,203.80
2023-03-19T19:03:54.310Z,290.63
2023-03-19T19:08:18.736Z,233.55
2023-03-19T19:12:39.330Z,277.43
2023-03-19T19:16:57.768Z,270.35
2023-03-19T19:21:16.106Z,275.20
2023-03-19T19:25:34.975Z,326.40
2023-03-19T19:29:55.045Z,291.83
2023-03-19T19:34:15.190Z,307.55
2023-03-19T19:38:34.043Z,207.75
2023-03-19T19:42:54.528Z,251.33
2023-03-19T19:47:15.823Z,312.15
2023-03-19T19:51:34.172Z,284.42
2023-03-19T19:55:52.430Z,289.50
2023-03-19T20:00:22.280Z,326.90
2023-03-19T20:04:40.673Z,434.23
2023-03-19T20:08:58.694Z,396.87
2023-03-19T20:13:24.998Z,459.48
2023-03-19T20:17:45.717Z,531.88
2023-03-19T20:22:05.173Z,500.85
2023-03-19T20:26:25.492Z,422.13
2023-03-19T20:30:44.401Z,473.58
2023-03-19T20:35:05.137Z,307.05
2023-03-19T20:39:23.499Z,295.77
2023-03-19T20:43:41.540Z,479.60
2023-03-19T20:47:59.661Z,542.85
2023-03-19T20:52:19.235Z,657.93
2023-03-19T20:56:46.334Z,731.80
2023-03-19T21:01:06.746Z,816.05
2023-03-19T21:05:25.663Z,895.47
2023-03-19T21:09:46.614Z,911.63
2023-03-19T21:14:07.970Z,875.47
2023-03-19T21:18:27.660Z,859.53
2023-03-19T21:22:48.235Z,15.40
2023-03-19T21:27:09.303Z,6.05
2023-03-19T21:31:28.153Z,201.75
2023-03-19T21:35:45.962Z,728.40
2023-03-19T21:40:04.133Z,10.90
2023-03-19T21:44:24.534Z,285.60
2023-03-19T21:48:43.999Z,204.65
2023-03-19T21:53:01.858Z,5.10
2023-03-19T21:57:19.511Z,184.77
2023-03-19T22:01:38.635Z,378.88
2023-03-19T22:05:58.698Z,283.67
2023-03-19T22:10:17.686Z,295.50
2023-03-19T22:14:38.669Z,385.85
2023-03-19T22:18:57.716Z,318.77
2023-03-19T22:23:16.836Z,318.52
2023-03-19T22:27:34.856Z,328.98
2023-03-19T22:31:54.243Z,322.90
2023-03-19T22:36:16.088Z,327.53
2023-03-19T22:40:35.759Z,327.45
2023-03-19T22:44:54.603Z,315.88
2023-03-19T22:49:16.594Z,322.83
2023-03-19T22:53:38.458Z,340.33
2023-03-19T22:57:56.646Z,360.10
2023-03-19T23:02:16.184Z,361.10
2023-03-19T23:06:35.885Z,417.83
2023-03-19T23:10:55.772Z,381.23
2023-03-19T23:15:15.293Z,363.85
2023-03-19T23:19:34.493Z,392.90
2023-03-19T23:23:54.684Z,344.52
2023-03-19T23:28:20.513Z,363.95
2023-03-19T23:32:39.598Z,567.17
2023-03-19T23:36:58.068Z,483.92
2023-03-19T23:41:23.881Z,429.95
2023-03-19T23:45:45.529Z,408.83
2023-03-19T23:50:04.069Z,415.75
2023-03-19T23:54:29.766Z,386.70
2023-03-19T23:58:51.013Z,395.20
